SCO16NO EGPH-KMCO
Flight info
| Callsign | SCO16NO |
|---|---|
| Flight time | N/A |
| Altitude | 36000 |
| Route | GOSAM P600 FENIK DCT NORBO DCT MAC DCT MOLAK DCT RILED DCT TOBOR/M083F360 DCT 5230N02000W 5230N03000W 5230N04000W 5030N05000W DCT BUDAR/N0474F380 N436B ALLEX Q822 ENE Q480 BEEKN Q439 BLENO Q97 YAZUU/N0474F400 Q167 ZJAAY Q108 SAWED Q97 ELMSZ Q135 PELIE Q85 LPERD GTOUT1 |
| Aircraft | B77W/H-SDE1E2E3FGHIJ2J3J4J5M1RWXY/LB1D1 |
Departure
| Time | 2026-04-26 21:20 |
|---|---|
| Airport | Edinburgh Airport (EGPH) |
Arrival
| Time | N/A |
|---|---|
| Airport | Orlando International Airport (KMCO) |
| Time | Latitude | Longitude | Altitude | Speed | Heading |
|---|---|---|---|---|---|
| 2026-04-26 21:02 | 55.94955 | -3.36011 | 121 ft | 0 kts | 254° |
| 2026-04-26 21:11 | 55.94959 | -3.35989 | 116 ft | 3 kts | 254° |
| 2026-04-26 21:11 | 55.94964 | -3.35954 | 118 ft | 3 kts | 254° |
| 2026-04-26 21:12 | 55.94969 | -3.35922 | 116 ft | 3 kts | 262° |
| 2026-04-26 21:12 | 55.94969 | -3.35888 | 116 ft | 3 kts | 290° |
| 2026-04-26 21:12 | 55.94959 | -3.35861 | 116 ft | 3 kts | 326° |
| 2026-04-26 21:12 | 55.94942 | -3.35844 | 116 ft | 3 kts | 338° |
| 2026-04-26 21:13 | 55.94926 | -3.35831 | 116 ft | 1 kts | 325° |
| 2026-04-26 21:13 | 55.94924 | -3.35829 | 116 ft | 0 kts | 323° |
| 2026-04-26 21:15 | 55.94926 | -3.35832 | 117 ft | 2 kts | 323° |
| 2026-04-26 21:16 | 55.94955 | -3.35866 | 117 ft | 7 kts | 336° |
| 2026-04-26 21:16 | 55.95007 | -3.35836 | 117 ft | 11 kts | 26° |
| 2026-04-26 21:16 | 55.95092 | -3.35814 | 116 ft | 15 kts | 324° |
| 2026-04-26 21:16 | 55.95174 | -3.35961 | 117 ft | 18 kts | 329° |
| 2026-04-26 21:17 | 55.95270 | -3.35876 | 117 ft | 18 kts | 58° |
| 2026-04-26 21:17 | 55.95335 | -3.35691 | 117 ft | 14 kts | 59° |
| 2026-04-26 21:17 | 55.95373 | -3.35577 | 117 ft | 10 kts | 59° |
| 2026-04-26 21:17 | 55.95406 | -3.35478 | 116 ft | 7 kts | 59° |
| 2026-04-26 21:18 | 55.95438 | -3.35414 | 118 ft | 7 kts | 27° |
| 2026-04-26 21:18 | 55.95476 | -3.35425 | 118 ft | 0 kts | 332° |
| 2026-04-26 21:18 | 55.95479 | -3.35427 | 118 ft | 1 kts | 332° |
| 2026-04-26 21:18 | 55.95481 | -3.35429 | 118 ft | 0 kts | 332° |
| 2026-04-26 21:19 | 55.95482 | -3.35430 | 118 ft | 1 kts | 332° |
| 2026-04-26 21:19 | 55.95537 | -3.35485 | 117 ft | 14 kts | 326° |
| 2026-04-26 21:19 | 55.95543 | -3.35643 | 113 ft | 20 kts | 243° |
| 2026-04-26 21:20 | 55.95350 | -3.36217 | 112 ft | 95 kts | 239° |
| 2026-04-26 21:20 | 55.94880 | -3.37606 | 117 ft | 165 kts | 239° |
| 2026-04-26 21:20 | 55.94250 | -3.39447 | 668 ft | 175 kts | 238° |
| 2026-04-26 21:20 | 55.93596 | -3.41287 | 1413 ft | 177 kts | 239° |
| 2026-04-26 21:21 | 55.92932 | -3.43183 | 2067 ft | 185 kts | 240° |
| 2026-04-26 21:21 | 55.92270 | -3.45173 | 2734 ft | 188 kts | 242° |
| 2026-04-26 21:21 | 55.91635 | -3.47234 | 3282 ft | 194 kts | 243° |
| 2026-04-26 21:21 | 55.90969 | -3.49429 | 3769 ft | 205 kts | 243° |
| 2026-04-26 21:22 | 55.90373 | -3.51784 | 4280 ft | 216 kts | 255° |
| 2026-04-26 21:22 | 55.90037 | -3.54585 | 4600 ft | 244 kts | 261° |
| 2026-04-26 21:22 | 55.89755 | -3.57568 | 5390 ft | 252 kts | 261° |
| 2026-04-26 21:23 | 55.89149 | -3.63829 | 6838 ft | 256 kts | 260° |
| 2026-04-26 21:23 | 55.88839 | -3.66986 | 7706 ft | 261 kts | 260° |
| 2026-04-26 21:23 | 55.88520 | -3.70193 | 8614 ft | 265 kts | 260° |
| 2026-04-26 21:23 | 55.88194 | -3.73438 | 9569 ft | 267 kts | 260° |
| 2026-04-26 21:24 | 55.87862 | -3.76713 | 10473 ft | 270 kts | 260° |
| 2026-04-26 21:24 | 55.87528 | -3.80029 | 11314 ft | 274 kts | 260° |
| 2026-04-26 21:24 | 55.87199 | -3.83345 | 12136 ft | 278 kts | 260° |
| 2026-04-26 21:24 | 55.86856 | -3.86797 | 12991 ft | 281 kts | 260° |
| 2026-04-26 21:25 | 55.86512 | -3.90249 | 13850 ft | 286 kts | 260° |
| 2026-04-26 21:25 | 55.86151 | -3.93860 | 14192 ft | 310 kts | 260° |
| 2026-04-26 21:25 | 55.85766 | -3.97713 | 14734 ft | 322 kts | 260° |
| 2026-04-26 21:25 | 55.85372 | -4.01632 | 15501 ft | 327 kts | 260° |
| 2026-04-26 21:26 | 55.84966 | -4.05644 | 16422 ft | 329 kts | 261° |
| 2026-04-26 21:26 | 55.84529 | -4.09642 | 17309 ft | 329 kts | 256° |
| 2026-04-26 21:26 | 55.83534 | -4.13360 | 18039 ft | 340 kts | 237° |
| 2026-04-26 21:26 | 55.81924 | -4.16492 | 18894 ft | 348 kts | 224° |
| 2026-04-26 21:27 | 55.79957 | -4.19035 | 19702 ft | 351 kts | 218° |
| 2026-04-26 21:27 | 55.77909 | -4.21442 | 20489 ft | 354 kts | 218° |
| 2026-04-26 21:27 | 55.75853 | -4.23891 | 21294 ft | 357 kts | 218° |
| 2026-04-26 21:27 | 55.73809 | -4.26412 | 22068 ft | 357 kts | 222° |
| 2026-04-26 21:28 | 55.72028 | -4.29461 | 22757 ft | 357 kts | 234° |
| 2026-04-26 21:28 | 55.70579 | -4.33034 | 23505 ft | 357 kts | 241° |
| 2026-04-26 21:28 | 55.69466 | -4.36971 | 24177 ft | 358 kts | 248° |
| 2026-04-26 21:28 | 55.68461 | -4.41037 | 24799 ft | 361 kts | 248° |
| 2026-04-26 21:29 | 55.67453 | -4.45133 | 25455 ft | 364 kts | 248° |
| 2026-04-26 21:29 | 55.66431 | -4.49249 | 26083 ft | 367 kts | 248° |
| 2026-04-26 21:29 | 55.65390 | -4.53409 | 26654 ft | 372 kts | 248° |
| 2026-04-26 21:29 | 55.64330 | -4.57613 | 27256 ft | 375 kts | 247° |
| 2026-04-26 21:30 | 55.63259 | -4.61840 | 27896 ft | 377 kts | 247° |
| 2026-04-26 21:30 | 55.62180 | -4.66089 | 28503 ft | 380 kts | 247° |
| 2026-04-26 21:30 | 55.61103 | -4.70315 | 29071 ft | 384 kts | 247° |
| 2026-04-26 21:30 | 55.60000 | -4.74645 | 29645 ft | 387 kts | 248° |
| 2026-04-26 21:31 | 55.59027 | -4.79093 | 30184 ft | 389 kts | 253° |
| 2026-04-26 21:31 | 55.58204 | -4.83672 | 30642 ft | 392 kts | 253° |
| 2026-04-26 21:31 | 55.57370 | -4.88283 | 31070 ft | 396 kts | 253° |
| 2026-04-26 21:31 | 55.56521 | -4.92931 | 31491 ft | 399 kts | 253° |
| 2026-04-26 21:32 | 55.55663 | -4.97606 | 31900 ft | 402 kts | 253° |
| 2026-04-26 21:32 | 55.54792 | -5.02321 | 32286 ft | 405 kts | 253° |
| 2026-04-26 21:32 | 55.53910 | -5.07084 | 32549 ft | 411 kts | 253° |
| 2026-04-26 21:32 | 55.53016 | -5.11901 | 32870 ft | 415 kts | 253° |
| 2026-04-26 21:33 | 55.52113 | -5.16749 | 33253 ft | 417 kts | 253° |
| 2026-04-26 21:33 | 55.51203 | -5.21620 | 33631 ft | 419 kts | 253° |
| 2026-04-26 21:33 | 55.50287 | -5.26509 | 33974 ft | 421 kts | 253° |
| 2026-04-26 21:33 | 55.49362 | -5.31440 | 34287 ft | 424 kts | 253° |
| 2026-04-26 21:34 | 55.48430 | -5.36392 | 34546 ft | 427 kts | 253° |
| 2026-04-26 21:34 | 55.47489 | -5.41376 | 34764 ft | 430 kts | 253° |
| 2026-04-26 21:34 | 55.46537 | -5.46412 | 34884 ft | 436 kts | 253° |
| 2026-04-26 21:34 | 55.45585 | -5.51430 | 35019 ft | 440 kts | 253° |
| 2026-04-26 21:35 | 55.44613 | -5.56547 | 35238 ft | 442 kts | 253° |
| 2026-04-26 21:35 | 55.43631 | -5.61699 | 35423 ft | 444 kts | 253° |
| 2026-04-26 21:35 | 55.42645 | -5.66852 | 35693 ft | 444 kts | 253° |
| 2026-04-26 21:35 | 55.41656 | -5.71994 | 36003 ft | 444 kts | 253° |
| 2026-04-26 21:36 | 55.40662 | -5.77138 | 36228 ft | 445 kts | 253° |
| 2026-04-26 21:36 | 55.39985 | -5.80640 | 36238 ft | 448 kts | 253° |
| 2026-04-26 21:36 | 55.37644 | -5.92696 | 36286 ft | 446 kts | 253° |
| 2026-04-26 21:37 | 55.35637 | -6.02976 | 36314 ft | 444 kts | 253° |
| 2026-04-26 21:37 | 55.33627 | -6.13226 | 36313 ft | 444 kts | 253° |
| 2026-04-26 21:38 | 55.31611 | -6.23456 | 36313 ft | 444 kts | 252° |
| 2026-04-26 21:38 | 55.29580 | -6.33705 | 36315 ft | 444 kts | 252° |
| 2026-04-26 21:39 | 55.27540 | -6.43943 | 36317 ft | 445 kts | 252° |
| 2026-04-26 21:39 | 55.25490 | -6.54182 | 36315 ft | 445 kts | 252° |
| 2026-04-26 21:40 | 55.23429 | -6.64420 | 36299 ft | 446 kts | 253° |
| 2026-04-26 21:40 | 55.21356 | -6.74663 | 36317 ft | 447 kts | 252° |
| 2026-04-26 21:41 | 55.19269 | -6.84923 | 36321 ft | 448 kts | 252° |
| 2026-04-26 21:41 | 55.17166 | -6.95207 | 36319 ft | 449 kts | 252° |
| 2026-04-26 21:42 | 55.15052 | -7.05494 | 36321 ft | 450 kts | 252° |
| 2026-04-26 21:42 | 55.12927 | -7.15779 | 36310 ft | 450 kts | 253° |
| 2026-04-26 21:43 | 55.10791 | -7.26065 | 36321 ft | 451 kts | 253° |
| 2026-04-26 21:43 | 55.08646 | -7.36343 | 36325 ft | 451 kts | 252° |
| 2026-04-26 21:44 | 55.06470 | -7.46718 | 36321 ft | 452 kts | 252° |
| 2026-04-26 21:44 | 55.04297 | -7.57025 | 36320 ft | 453 kts | 252° |
| 2026-04-26 21:45 | 55.02129 | -7.67254 | 36298 ft | 453 kts | 252° |
| 2026-04-26 21:45 | 54.99938 | -7.77541 | 36316 ft | 453 kts | 252° |
| 2026-04-26 21:46 | 54.97735 | -7.87828 | 36328 ft | 454 kts | 252° |
| 2026-04-26 21:46 | 54.95518 | -7.98135 | 36332 ft | 455 kts | 252° |